createdAt,value
2018-12-18T00:00:04.632Z,21.80
2018-12-18T00:00:36.229Z,21.81
2018-12-18T00:01:07.809Z,21.81
2018-12-18T00:01:39.416Z,21.81
2018-12-18T00:02:11.052Z,21.80
2018-12-18T00:02:42.677Z,21.80
2018-12-18T00:03:14.284Z,21.79
2018-12-18T00:03:45.891Z,21.79
2018-12-18T00:04:17.498Z,21.79
2018-12-18T00:04:49.093Z,21.79
2018-12-18T00:05:26.375Z,21.77
2018-12-18T00:05:57.978Z,21.77
2018-12-18T00:06:29.570Z,21.75
2018-12-18T00:07:01.182Z,21.75
2018-12-18T00:07:32.812Z,21.75
2018-12-18T00:08:04.409Z,21.75
2018-12-18T00:08:36.020Z,21.76
2018-12-18T00:09:07.624Z,21.75
2018-12-18T00:09:39.218Z,21.75
2018-12-18T00:10:10.818Z,21.75
2018-12-18T00:10:46.175Z,21.75
2018-12-18T00:11:17.791Z,21.74
2018-12-18T00:11:49.391Z,21.75
2018-12-18T00:12:21.029Z,21.75
2018-12-18T00:12:52.626Z,21.76
2018-12-18T00:13:24.208Z,21.76
2018-12-18T00:13:55.798Z,21.75
2018-12-18T00:14:27.398Z,21.74
2018-12-18T00:14:59.008Z,21.73
2018-12-18T00:15:30.617Z,21.73
2018-12-18T00:16:02.199Z,21.74
2018-12-18T00:16:33.797Z,21.74
2018-12-18T00:17:05.393Z,21.56
2018-12-18T00:17:37.664Z,21.75
2018-12-18T00:18:09.257Z,21.75
2018-12-18T00:18:40.853Z,21.74
2018-12-18T00:19:12.435Z,21.77
2018-12-18T00:19:44.040Z,21.77
2018-12-18T00:20:15.654Z,21.77
2018-12-18T00:20:47.250Z,21.77
2018-12-18T00:21:18.841Z,21.76
2018-12-18T00:21:50.447Z,21.76
2018-12-18T00:22:22.056Z,21.75
2018-12-18T00:22:53.684Z,21.74
2018-12-18T00:23:25.282Z,21.75
2018-12-18T00:23:56.877Z,21.76
2018-12-18T00:24:28.482Z,21.75
2018-12-18T00:25:00.077Z,21.75
2018-12-18T00:25:31.660Z,21.75
2018-12-18T00:26:03.249Z,21.74
2018-12-18T00:26:34.846Z,21.75
2018-12-18T00:27:06.496Z,21.76
2018-12-18T00:27:38.115Z,21.76
2018-12-18T00:28:09.705Z,21.79
2018-12-18T00:28:41.349Z,21.80
2018-12-18T00:29:12.954Z,21.80
2018-12-18T00:29:44.546Z,21.80
2018-12-18T00:30:16.139Z,21.81
2018-12-18T00:30:47.744Z,21.80
2018-12-18T00:31:19.349Z,21.81
2018-12-18T00:31:51.021Z,21.85
2018-12-18T00:32:22.628Z,21.86
2018-12-18T00:32:54.249Z,21.86
2018-12-18T00:33:25.845Z,21.86
2018-12-18T00:33:57.420Z,21.85
2018-12-18T00:34:29.010Z,21.84
2018-12-18T00:35:00.606Z,21.85
2018-12-18T00:35:32.216Z,21.84
2018-12-18T00:36:03.827Z,21.85
2018-12-18T00:36:35.433Z,21.85
2018-12-18T00:37:07.045Z,21.85
2018-12-18T00:37:38.663Z,21.60
2018-12-18T00:38:10.267Z,21.84
2018-12-18T00:38:41.871Z,21.84
2018-12-18T00:39:13.465Z,21.84
2018-12-18T00:39:45.066Z,21.84
2018-12-18T00:40:16.660Z,21.83
2018-12-18T00:40:48.267Z,21.83
2018-12-18T00:41:19.867Z,21.84
2018-12-18T00:41:51.465Z,21.85
2018-12-18T00:42:23.060Z,21.87
2018-12-18T00:42:54.692Z,21.88
2018-12-18T00:43:26.296Z,21.89
2018-12-18T00:43:57.899Z,21.89
2018-12-18T00:44:29.513Z,21.89
2018-12-18T00:45:01.123Z,21.89
2018-12-18T00:45:32.726Z,21.78
2018-12-18T00:46:04.332Z,21.88
2018-12-18T00:46:35.930Z,21.88
2018-12-18T00:47:07.512Z,21.89
2018-12-18T00:47:39.110Z,21.89
2018-12-18T00:48:10.728Z,21.87
2018-12-18T00:48:42.331Z,21.89
2018-12-18T00:49:13.925Z,21.87
2018-12-18T00:49:45.518Z,21.90
2018-12-18T00:50:17.113Z,21.89
2018-12-18T00:50:48.691Z,21.88
2018-12-18T00:51:20.300Z,21.89
2018-12-18T00:51:51.895Z,21.89
2018-12-18T00:52:23.519Z,21.90
2018-12-18T00:52:55.159Z,21.91
2018-12-18T00:53:26.753Z,21.92
2018-12-18T00:53:58.348Z,21.92
2018-12-18T00:54:29.945Z,21.92
2018-12-18T00:55:01.529Z,21.92
2018-12-18T00:55:33.118Z,21.91
2018-12-18T00:56:04.717Z,21.90
2018-12-18T00:56:36.326Z,21.88
2018-12-18T00:57:07.925Z,21.90
2018-12-18T00:57:39.532Z,21.88
2018-12-18T00:58:11.146Z,21.88
2018-12-18T00:58:42.741Z,21.88
2018-12-18T00:59:14.344Z,21.88
2018-12-18T00:59:45.951Z,21.90
2018-12-18T01:00:17.564Z,21.91
2018-12-18T01:00:49.157Z,21.91
2018-12-18T01:01:20.749Z,21.91
2018-12-18T01:01:57.989Z,21.90
2018-12-18T01:02:29.624Z,21.91
2018-12-18T01:03:01.252Z,21.91
2018-12-18T01:03:32.846Z,21.91
2018-12-18T01:04:04.452Z,21.90
2018-12-18T01:04:36.055Z,21.90
2018-12-18T01:05:07.662Z,21.90
2018-12-18T01:05:39.262Z,21.77
2018-12-18T01:06:10.887Z,21.88
2018-12-18T01:06:42.495Z,21.88
2018-12-18T01:07:14.108Z,21.87
2018-12-18T01:07:45.702Z,21.86
2018-12-18T01:08:17.322Z,21.86
2018-12-18T01:08:48.920Z,21.86
2018-12-18T01:09:20.500Z,21.86
2018-12-18T01:09:52.090Z,21.86
2018-12-18T01:10:23.672Z,21.85
2018-12-18T01:10:55.268Z,21.84
2018-12-18T01:11:26.875Z,21.85
2018-12-18T01:11:58.484Z,21.84
2018-12-18T01:12:30.096Z,21.84
2018-12-18T01:13:01.732Z,21.84
2018-12-18T01:13:33.324Z,21.83
2018-12-18T01:14:04.935Z,21.82
2018-12-18T01:14:36.530Z,21.82
2018-12-18T01:15:08.139Z,21.81
2018-12-18T01:15:39.734Z,21.81
2018-12-18T01:16:11.330Z,21.81
2018-12-18T01:16:42.933Z,21.81
2018-12-18T01:17:14.533Z,21.79
2018-12-18T01:17:46.130Z,21.82
2018-12-18T01:18:17.764Z,21.83
2018-12-18T01:18:49.372Z,21.83
2018-12-18T01:19:20.956Z,21.81
2018-12-18T01:19:52.560Z,21.80
2018-12-18T01:20:24.169Z,21.80
2018-12-18T01:20:55.772Z,21.81
2018-12-18T01:21:27.369Z,21.79
2018-12-18T01:21:58.977Z,21.80
2018-12-18T01:22:30.578Z,21.79
2018-12-18T01:23:02.172Z,21.78
2018-12-18T01:23:33.787Z,21.77
2018-12-18T01:24:05.396Z,21.77
2018-12-18T01:24:36.989Z,21.77
2018-12-18T01:25:08.581Z,21.76
2018-12-18T01:25:40.192Z,21.77
2018-12-18T01:26:11.796Z,21.77
2018-12-18T01:26:43.399Z,21.78
2018-12-18T01:27:15.012Z,21.79
2018-12-18T01:27:46.608Z,21.77
2018-12-18T01:28:18.230Z,21.75
2018-12-18T01:28:49.835Z,21.78
2018-12-18T01:29:21.431Z,21.78
2018-12-18T01:29:53.025Z,21.77
2018-12-18T01:30:24.649Z,21.78
2018-12-18T01:30:56.260Z,21.77
2018-12-18T01:31:27.864Z,21.79
2018-12-18T01:31:59.458Z,21.78
2018-12-18T01:32:31.054Z,21.79
2018-12-18T01:33:02.665Z,21.80
2018-12-18T01:33:34.285Z,21.79
2018-12-18T01:34:05.878Z,21.76
2018-12-18T01:34:37.479Z,21.76
2018-12-18T01:35:09.123Z,21.73
2018-12-18T01:35:40.736Z,21.71
2018-12-18T01:36:12.341Z,21.72
2018-12-18T01:36:43.925Z,21.70
2018-12-18T01:37:15.515Z,21.69
2018-12-18T01:37:47.124Z,21.69
2018-12-18T01:38:18.766Z,21.69
2018-12-18T01:38:50.363Z,21.70
2018-12-18T01:39:21.957Z,21.69
2018-12-18T01:39:53.550Z,21.70
2018-12-18T01:40:25.141Z,21.69
2018-12-18T01:40:56.737Z,21.73
2018-12-18T01:41:28.349Z,21.73
2018-12-18T01:41:59.955Z,21.76
2018-12-18T01:42:31.552Z,21.75
2018-12-18T01:43:03.158Z,21.76
2018-12-18T01:43:34.781Z,21.76
2018-12-18T01:44:06.377Z,21.76
2018-12-18T01:44:37.975Z,21.76
2018-12-18T01:45:09.573Z,21.74
2018-12-18T01:45:41.179Z,21.72
2018-12-18T01:46:12.765Z,21.73
2018-12-18T01:46:44.357Z,21.74
2018-12-18T01:47:15.953Z,21.73
2018-12-18T01:47:47.548Z,21.72
2018-12-18T01:48:19.179Z,21.73
2018-12-18T01:48:50.817Z,21.72
2018-12-18T01:49:22.434Z,21.72
2018-12-18T01:49:54.034Z,21.71
2018-12-18T01:50:25.625Z,21.71
2018-12-18T01:50:57.235Z,21.72
2018-12-18T01:51:28.850Z,21.72
2018-12-18T01:52:00.463Z,21.70
2018-12-18T01:52:32.071Z,21.71
2018-12-18T01:53:03.675Z,21.75
2018-12-18T01:53:35.291Z,21.78
2018-12-18T01:54:06.900Z,21.79
2018-12-18T01:54:38.497Z,21.79
2018-12-18T01:55:10.102Z,21.79
2018-12-18T01:55:41.683Z,21.78
2018-12-18T01:56:13.292Z,21.79
2018-12-18T01:56:44.890Z,21.78
2018-12-18T01:57:16.493Z,21.80
2018-12-18T01:57:48.090Z,21.78
2018-12-18T01:58:19.686Z,21.78
2018-12-18T01:58:51.314Z,21.78
2018-12-18T01:59:22.920Z,21.78
2018-12-18T01:59:54.525Z,21.77
2018-12-18T02:00:26.122Z,21.78
2018-12-18T02:00:57.722Z,21.79
2018-12-18T02:01:29.328Z,21.80
2018-12-18T02:02:00.923Z,21.80
2018-12-18T02:02:32.536Z,21.79
2018-12-18T02:03:04.147Z,21.79
2018-12-18T02:03:35.790Z,21.78
2018-12-18T02:04:07.401Z,21.78
2018-12-18T02:04:39.003Z,21.78
2018-12-18T02:05:10.617Z,21.76
2018-12-18T02:05:42.282Z,21.65
2018-12-18T02:06:13.878Z,21.76
2018-12-18T02:06:45.475Z,21.75
2018-12-18T02:07:17.070Z,21.75
2018-12-18T02:07:48.669Z,21.75
2018-12-18T02:08:20.252Z,21.75
2018-12-18T02:08:51.883Z,21.76
2018-12-18T02:09:23.481Z,21.76
2018-12-18T02:09:55.079Z,21.76
2018-12-18T02:10:26.675Z,21.74
2018-12-18T02:10:58.274Z,21.76
2018-12-18T02:11:29.852Z,21.76
2018-12-18T02:12:01.441Z,21.77
2018-12-18T02:12:33.042Z,21.79
2018-12-18T02:13:04.646Z,21.84
2018-12-18T02:13:36.251Z,21.84
2018-12-18T02:14:07.874Z,21.83
2018-12-18T02:14:39.490Z,21.82
2018-12-18T02:15:11.081Z,21.80
2018-12-18T02:15:42.679Z,21.78
2018-12-18T02:16:14.276Z,21.78
2018-12-18T02:16:45.857Z,21.75
2018-12-18T02:17:17.451Z,21.74
2018-12-18T02:17:49.056Z,21.73
2018-12-18T02:18:20.650Z,21.73
2018-12-18T02:18:52.271Z,21.73
2018-12-18T02:19:23.851Z,21.72
2018-12-18T02:19:55.459Z,21.70
2018-12-18T02:20:27.055Z,21.70
2018-12-18T02:20:58.649Z,21.70
2018-12-18T02:21:30.255Z,21.70
2018-12-18T02:22:01.859Z,21.59
2018-12-18T02:22:33.468Z,21.71
2018-12-18T02:23:05.063Z,21.70
2018-12-18T02:23:36.670Z,21.69
2018-12-18T02:24:08.289Z,21.69
2018-12-18T02:24:39.893Z,21.67
2018-12-18T02:25:11.500Z,21.69
2018-12-18T02:25:43.096Z,21.67
2018-12-18T02:26:14.685Z,21.68
2018-12-18T02:26:46.278Z,21.68
2018-12-18T02:27:17.887Z,21.67
2018-12-18T02:27:49.486Z,21.68
2018-12-18T02:28:21.063Z,21.67
2018-12-18T02:28:52.701Z,21.67
2018-12-18T02:29:24.312Z,21.67
2018-12-18T02:29:55.919Z,21.66
2018-12-18T02:30:27.514Z,21.66
2018-12-18T02:30:59.128Z,21.67
2018-12-18T02:31:30.709Z,21.67
2018-12-18T02:32:02.321Z,21.67
2018-12-18T02:32:33.922Z,21.66
2018-12-18T02:33:05.524Z,21.66
2018-12-18T02:33:37.139Z,21.66
2018-12-18T02:34:13.757Z,21.66
2018-12-18T02:34:40.415Z,21.65
2018-12-18T02:35:12.061Z,21.65
2018-12-18T02:35:43.662Z,21.65
2018-12-18T02:36:15.258Z,21.65
2018-12-18T02:36:46.913Z,21.65
2018-12-18T02:37:18.524Z,21.63
2018-12-18T02:37:50.132Z,21.63
2018-12-18T02:38:21.748Z,21.63
2018-12-18T02:38:53.359Z,21.63
2018-12-18T02:39:24.996Z,21.61
2018-12-18T02:39:56.583Z,21.60
2018-12-18T02:40:28.181Z,21.60
2018-12-18T02:40:59.787Z,21.60
2018-12-18T02:41:31.396Z,21.60
2018-12-18T02:42:02.995Z,21.60
2018-12-18T02:42:34.624Z,21.61
2018-12-18T02:43:06.235Z,21.61
2018-12-18T02:43:37.848Z,21.59
2018-12-18T02:44:09.482Z,21.58
2018-12-18T02:44:41.083Z,21.60
2018-12-18T02:45:12.679Z,21.60
2018-12-18T02:45:44.344Z,21.61
2018-12-18T02:46:15.948Z,21.60
2018-12-18T02:46:47.541Z,21.60
2018-12-18T02:47:19.120Z,21.58
2018-12-18T02:47:50.714Z,21.59
2018-12-18T02:48:22.306Z,21.58
2018-12-18T02:48:53.906Z,21.59
2018-12-18T02:49:25.501Z,21.58
2018-12-18T02:49:57.109Z,21.58
2018-12-18T02:50:28.728Z,21.57
2018-12-18T02:51:00.320Z,21.57
2018-12-18T02:51:31.918Z,21.57
2018-12-18T02:52:03.514Z,21.56
2018-12-18T02:52:35.112Z,21.56
2018-12-18T02:53:06.715Z,21.56
2018-12-18T02:53:38.324Z,21.55
2018-12-18T02:54:10.307Z,21.56
2018-12-18T02:54:42.096Z,21.57
2018-12-18T02:55:13.716Z,21.59
2018-12-18T02:55:45.310Z,21.59
2018-12-18T02:56:16.920Z,21.47
2018-12-18T02:56:48.527Z,21.60
2018-12-18T02:57:20.113Z,21.60
2018-12-18T02:57:51.706Z,21.60
2018-12-18T02:58:23.297Z,21.60
2018-12-18T02:58:54.904Z,21.60
2018-12-18T02:59:26.516Z,21.59
2018-12-18T02:59:58.110Z,21.59
2018-12-18T03:00:29.705Z,21.58
2018-12-18T03:01:01.298Z,21.57
2018-12-18T03:01:32.921Z,21.61
2018-12-18T03:02:04.527Z,21.68
2018-12-18T03:02:36.126Z,21.64
2018-12-18T03:03:07.721Z,21.61
2018-12-18T03:03:39.313Z,21.57
2018-12-18T03:04:10.915Z,21.51
2018-12-18T03:04:42.524Z,21.47
2018-12-18T03:05:14.118Z,21.44
2018-12-18T03:05:45.725Z,21.46
2018-12-18T03:06:17.342Z,21.48
2018-12-18T03:06:48.941Z,21.48
2018-12-18T03:07:20.533Z,21.49
2018-12-18T03:07:52.151Z,21.50
2018-12-18T03:08:23.755Z,21.51
2018-12-18T03:08:55.345Z,21.51
2018-12-18T03:09:26.975Z,21.51
2018-12-18T03:09:58.589Z,21.52
2018-12-18T03:10:30.185Z,21.55
2018-12-18T03:11:01.789Z,21.58
2018-12-18T03:11:33.391Z,21.59
2018-12-18T03:12:04.986Z,21.62
2018-12-18T03:12:36.581Z,21.62
2018-12-18T03:13:08.182Z,21.63
2018-12-18T03:13:39.775Z,21.61
2018-12-18T03:14:11.378Z,21.64
2018-12-18T03:14:42.994Z,21.64
2018-12-18T03:15:14.590Z,21.64
2018-12-18T03:15:46.185Z,21.64
2018-12-18T03:16:17.783Z,21.66
2018-12-18T03:16:49.491Z,21.66
2018-12-18T03:17:21.099Z,21.66
2018-12-18T03:17:52.693Z,21.66
2018-12-18T03:18:24.291Z,21.67
2018-12-18T03:18:55.885Z,21.66
2018-12-18T03:19:27.526Z,21.65
2018-12-18T03:19:59.123Z,21.64
2018-12-18T03:20:30.717Z,21.64
2018-12-18T03:21:02.311Z,21.67
2018-12-18T03:21:33.909Z,21.67
2018-12-18T03:22:05.533Z,21.68
2018-12-18T03:22:37.130Z,21.67
2018-12-18T03:23:08.716Z,21.68
2018-12-18T03:23:40.319Z,21.67
2018-12-18T03:24:11.923Z,21.66
2018-12-18T03:24:43.541Z,21.66
2018-12-18T03:25:15.149Z,21.67
2018-12-18T03:25:46.748Z,21.67
2018-12-18T03:26:18.352Z,21.68
2018-12-18T03:26:49.958Z,21.47
2018-12-18T03:27:21.572Z,21.69
2018-12-18T03:27:53.180Z,21.71
2018-12-18T03:28:24.767Z,21.72
2018-12-18T03:28:56.366Z,21.71
2018-12-18T03:29:27.957Z,21.72
2018-12-18T03:29:59.565Z,21.72
2018-12-18T03:30:31.163Z,21.72
2018-12-18T03:31:02.785Z,21.71
2018-12-18T03:31:34.397Z,21.72
2018-12-18T03:32:05.989Z,21.74
2018-12-18T03:32:37.581Z,21.73
2018-12-18T03:33:09.184Z,21.72
2018-12-18T03:33:40.791Z,21.72
2018-12-18T03:34:12.401Z,21.72
2018-12-18T03:34:44.037Z,21.71
2018-12-18T03:35:15.634Z,21.72
2018-12-18T03:35:47.218Z,21.75
2018-12-18T03:36:18.814Z,21.75
2018-12-18T03:36:50.452Z,21.75
2018-12-18T03:37:22.050Z,21.74
2018-12-18T03:37:53.641Z,21.75
2018-12-18T03:38:25.233Z,21.75
2018-12-18T03:38:56.825Z,21.74
2018-12-18T03:39:28.437Z,21.75
2018-12-18T03:40:00.076Z,21.75
2018-12-18T03:40:31.725Z,21.78
2018-12-18T03:41:03.313Z,21.84
2018-12-18T03:41:34.910Z,21.96
2018-12-18T03:42:06.521Z,21.43
2018-12-18T03:42:38.114Z,20.53
2018-12-18T03:43:09.708Z,19.74
2018-12-18T03:43:41.303Z,19.14
2018-12-18T03:44:12.899Z,18.66
2018-12-18T03:44:44.541Z,18.19
2018-12-18T03:45:16.133Z,17.93
2018-12-18T03:45:47.725Z,17.75
2018-12-18T03:46:19.328Z,17.62
2018-12-18T03:46:50.935Z,17.45
2018-12-18T03:47:22.548Z,17.20
2018-12-18T03:47:54.160Z,17.08
2018-12-18T03:48:25.761Z,16.95
2018-12-18T03:48:57.363Z,16.84
2018-12-18T03:49:28.968Z,16.72
2018-12-18T03:50:00.608Z,16.66
2018-12-18T03:50:32.222Z,16.66
2018-12-18T03:51:03.805Z,16.60
2018-12-18T03:51:35.402Z,16.51
2018-12-18T03:52:06.993Z,16.46
2018-12-18T03:52:38.590Z,16.54
2018-12-18T03:53:10.293Z,16.93
2018-12-18T03:53:41.913Z,17.46
2018-12-18T03:54:13.510Z,17.99
2018-12-18T03:54:45.131Z,18.48
2018-12-18T03:55:16.742Z,18.91
2018-12-18T03:55:48.338Z,19.30
2018-12-18T03:56:19.934Z,19.65
2018-12-18T03:56:51.529Z,19.93
2018-12-18T03:57:23.130Z,20.20
2018-12-18T03:57:54.744Z,20.38
2018-12-18T03:58:26.344Z,20.54
2018-12-18T03:58:57.947Z,20.68
2018-12-18T03:59:29.760Z,20.78
2018-12-18T04:00:01.695Z,20.90
2018-12-18T04:00:33.429Z,21.04
2018-12-18T04:01:05.035Z,21.15
2018-12-18T04:01:36.630Z,21.20
2018-12-18T04:02:08.222Z,21.26
2018-12-18T04:02:39.818Z,21.28
2018-12-18T04:03:11.419Z,21.35
2018-12-18T04:03:43.014Z,21.43
2018-12-18T04:04:14.624Z,21.50
2018-12-18T04:04:46.241Z,21.55
2018-12-18T04:05:17.865Z,21.61
2018-12-18T04:05:49.472Z,21.64
2018-12-18T04:06:21.059Z,21.68
2018-12-18T04:06:52.672Z,21.71
2018-12-18T04:07:24.274Z,21.76
2018-12-18T04:07:55.866Z,21.83
2018-12-18T04:08:27.466Z,21.86
2018-12-18T04:08:59.063Z,21.90
2018-12-18T04:09:30.671Z,21.91
2018-12-18T04:10:02.309Z,21.94
2018-12-18T04:10:33.906Z,21.94
2018-12-18T04:11:05.517Z,21.97
2018-12-18T04:11:37.114Z,22.01
2018-12-18T04:12:08.719Z,22.03
2018-12-18T04:12:40.320Z,22.06
2018-12-18T04:13:11.904Z,22.07
2018-12-18T04:13:43.508Z,22.09
2018-12-18T04:14:15.103Z,22.10
2018-12-18T04:14:46.701Z,22.12
2018-12-18T04:15:18.332Z,22.13
2018-12-18T04:15:49.922Z,22.16
2018-12-18T04:16:21.530Z,22.18
2018-12-18T04:16:53.126Z,22.18
2018-12-18T04:17:24.727Z,22.17
2018-12-18T04:17:56.329Z,22.17
2018-12-18T04:18:27.964Z,22.18
2018-12-18T04:18:59.574Z,22.20
2018-12-18T04:19:31.167Z,22.21
2018-12-18T04:20:02.793Z,22.23
2018-12-18T04:20:34.410Z,22.24
2018-12-18T04:21:06.007Z,22.24
2018-12-18T04:21:37.601Z,22.24
2018-12-18T04:22:09.201Z,22.25
2018-12-18T04:22:40.798Z,22.26
2018-12-18T04:23:12.404Z,22.25
2018-12-18T04:23:44.001Z,22.23
2018-12-18T04:24:15.598Z,22.23
2018-12-18T04:24:47.204Z,22.24
2018-12-18T04:25:18.827Z,22.23
2018-12-18T04:25:50.426Z,22.23
2018-12-18T04:26:22.022Z,22.21
2018-12-18T04:26:53.632Z,22.19
2018-12-18T04:27:25.239Z,22.17
2018-12-18T04:27:56.826Z,22.13
2018-12-18T04:28:28.435Z,22.12
2018-12-18T04:29:00.044Z,22.11
2018-12-18T04:29:31.642Z,22.08
2018-12-18T04:30:03.240Z,22.06
2018-12-18T04:30:34.873Z,22.03
2018-12-18T04:31:06.498Z,22.02
2018-12-18T04:31:38.095Z,21.98
2018-12-18T04:32:09.691Z,21.95
2018-12-18T04:32:41.268Z,21.93
2018-12-18T04:33:12.866Z,21.90
2018-12-18T04:33:44.460Z,21.87
2018-12-18T04:34:16.063Z,21.83
2018-12-18T04:34:47.647Z,21.80
2018-12-18T04:35:19.287Z,21.77
2018-12-18T04:35:50.883Z,21.75
2018-12-18T04:36:22.478Z,21.75
2018-12-18T04:36:54.254Z,21.72
2018-12-18T04:37:25.864Z,21.69
2018-12-18T04:37:57.453Z,21.68
2018-12-18T04:38:29.063Z,21.66
2018-12-18T04:39:00.660Z,21.66
2018-12-18T04:39:32.262Z,21.65
2018-12-18T04:40:03.840Z,21.64
2018-12-18T04:40:35.459Z,21.60
2018-12-18T04:41:07.063Z,21.57
2018-12-18T04:41:38.648Z,21.55
2018-12-18T04:42:10.256Z,21.54
2018-12-18T04:42:41.866Z,21.53
2018-12-18T04:43:13.479Z,21.51
2018-12-18T04:43:45.078Z,21.50
2018-12-18T04:44:16.673Z,21.48
2018-12-18T04:44:48.275Z,21.47
2018-12-18T04:45:19.858Z,21.44
2018-12-18T04:45:51.463Z,21.42
2018-12-18T04:46:23.058Z,21.42
2018-12-18T04:46:54.659Z,21.41
2018-12-18T04:47:26.268Z,21.40
2018-12-18T04:47:57.865Z,21.41
2018-12-18T04:48:29.473Z,21.40
2018-12-18T04:49:01.075Z,21.40
2018-12-18T04:49:32.705Z,21.39
2018-12-18T04:50:04.307Z,21.38
2018-12-18T04:50:35.933Z,21.38
2018-12-18T04:51:07.527Z,21.36
2018-12-18T04:51:39.132Z,21.35
2018-12-18T04:52:10.754Z,21.34
2018-12-18T04:52:42.356Z,21.33
2018-12-18T04:53:13.950Z,21.34
2018-12-18T04:53:45.553Z,21.33
2018-12-18T04:54:17.283Z,21.34
2018-12-18T04:54:48.878Z,21.32
2018-12-18T04:55:20.478Z,21.31
2018-12-18T04:55:52.083Z,21.30
2018-12-18T04:56:23.682Z,21.29
2018-12-18T04:56:55.287Z,21.29
2018-12-18T04:57:26.891Z,21.29
2018-12-18T04:57:58.476Z,21.28
2018-12-18T04:58:30.084Z,21.29
2018-12-18T04:59:01.688Z,21.27
2018-12-18T04:59:33.295Z,21.27
2018-12-18T05:00:04.902Z,21.27
2018-12-18T05:00:36.675Z,21.26
2018-12-18T05:01:08.290Z,21.25
2018-12-18T05:01:39.889Z,21.24
2018-12-18T05:02:11.478Z,21.23
2018-12-18T05:02:43.061Z,21.22
2018-12-18T05:03:14.674Z,21.01
2018-12-18T05:03:46.486Z,21.20
2018-12-18T05:04:18.134Z,21.11
2018-12-18T05:04:50.553Z,21.20
2018-12-18T05:05:21.404Z,21.19
2018-12-18T05:05:53.011Z,21.19
2018-12-18T05:06:24.600Z,21.18
2018-12-18T05:06:56.190Z,21.19
2018-12-18T05:07:27.803Z,21.18
2018-12-18T05:07:59.411Z,21.16
2018-12-18T05:08:31.016Z,21.17
2018-12-18T05:09:02.610Z,21.17
2018-12-18T05:09:34.215Z,21.17
2018-12-18T05:10:05.817Z,21.16
2018-12-18T05:10:37.439Z,21.16
2018-12-18T05:11:09.062Z,21.14
2018-12-18T05:11:40.672Z,21.14
2018-12-18T05:12:12.287Z,21.12
2018-12-18T05:12:43.897Z,21.11
2018-12-18T05:13:15.522Z,21.12
2018-12-18T05:13:47.144Z,21.11
2018-12-18T05:14:18.728Z,21.12
2018-12-18T05:14:50.327Z,21.11
2018-12-18T05:15:21.921Z,21.10
2018-12-18T05:15:53.531Z,21.09
2018-12-18T05:16:25.141Z,21.09
2018-12-18T05:16:56.761Z,21.09
2018-12-18T05:17:28.376Z,21.09
2018-12-18T05:17:59.970Z,21.08
2018-12-18T05:18:31.572Z,21.07
2018-12-18T05:19:03.179Z,21.07
2018-12-18T05:19:34.788Z,21.06
2018-12-18T05:20:06.376Z,21.06
2018-12-18T05:20:37.972Z,21.07
2018-12-18T05:21:09.589Z,21.06
2018-12-18T05:21:41.271Z,21.06
2018-12-18T05:22:12.884Z,21.05
2018-12-18T05:22:44.496Z,21.02
2018-12-18T05:23:16.097Z,21.04
2018-12-18T05:23:47.703Z,21.04
2018-12-18T05:24:19.294Z,21.04
2018-12-18T05:24:50.892Z,21.03
2018-12-18T05:25:22.485Z,20.94
2018-12-18T05:25:54.096Z,21.04
2018-12-18T05:26:25.715Z,21.04
2018-12-18T05:26:57.312Z,21.03
2018-12-18T05:27:28.912Z,21.04
2018-12-18T05:28:00.515Z,21.02
2018-12-18T05:28:33.201Z,21.03
2018-12-18T05:29:04.809Z,21.02
2018-12-18T05:29:36.395Z,21.04
2018-12-18T05:30:07.983Z,21.04
2018-12-18T05:30:39.582Z,21.03
2018-12-18T05:31:11.205Z,21.02
2018-12-18T05:31:42.802Z,21.01
2018-12-18T05:32:14.402Z,21.01
2018-12-18T05:32:46.008Z,21.00
2018-12-18T05:33:17.621Z,21.00
2018-12-18T05:33:49.232Z,21.01
2018-12-18T05:34:20.844Z,21.01
2018-12-18T05:34:56.567Z,20.93
2018-12-18T05:35:24.124Z,21.01
2018-12-18T05:35:55.777Z,21.00
2018-12-18T05:36:27.389Z,20.99
2018-12-18T05:36:58.983Z,21.01
2018-12-18T05:37:30.585Z,21.02
2018-12-18T05:38:02.200Z,21.05
2018-12-18T05:38:33.784Z,21.05
2018-12-18T05:39:05.395Z,21.06
2018-12-18T05:39:37.004Z,21.06
2018-12-18T05:40:08.635Z,21.08
2018-12-18T05:40:40.216Z,21.10
2018-12-18T05:41:11.873Z,21.10
2018-12-18T05:41:43.460Z,21.10
2018-12-18T05:42:15.063Z,21.11
2018-12-18T05:42:46.667Z,21.12
2018-12-18T05:43:18.273Z,21.14
2018-12-18T05:43:49.887Z,21.16
2018-12-18T05:44:21.481Z,21.17
2018-12-18T05:44:53.083Z,21.18
2018-12-18T05:45:24.677Z,21.19
2018-12-18T05:45:56.269Z,21.11
2018-12-18T05:46:27.899Z,21.24
2018-12-18T05:46:59.502Z,21.13
2018-12-18T05:47:31.099Z,21.28
2018-12-18T05:48:02.696Z,21.30
2018-12-18T05:48:34.294Z,21.33
2018-12-18T05:49:05.895Z,21.35
2018-12-18T05:49:37.609Z,21.38
2018-12-18T05:50:09.228Z,21.39
2018-12-18T05:50:40.846Z,21.41
2018-12-18T05:51:12.483Z,21.43
2018-12-18T05:51:44.082Z,21.46
2018-12-18T05:52:15.678Z,21.46
2018-12-18T05:52:47.284Z,21.48
2018-12-18T05:53:18.878Z,21.54
2018-12-18T05:53:50.468Z,21.56
2018-12-18T05:54:22.071Z,21.58
2018-12-18T05:54:53.673Z,21.60
2018-12-18T05:55:25.277Z,21.61
2018-12-18T05:55:56.860Z,21.62
2018-12-18T05:56:28.466Z,21.65
2018-12-18T05:57:00.057Z,21.64
2018-12-18T05:57:31.646Z,21.67
2018-12-18T05:58:03.238Z,21.68
2018-12-18T05:58:34.840Z,21.68
2018-12-18T05:59:06.448Z,21.67
2018-12-18T05:59:38.032Z,21.70
2018-12-18T06:00:09.622Z,21.71
2018-12-18T06:00:41.203Z,21.72
2018-12-18T06:01:12.835Z,21.72
2018-12-18T06:01:44.464Z,21.73
2018-12-18T06:02:16.052Z,21.73
2018-12-18T06:02:47.645Z,21.73
2018-12-18T06:03:19.238Z,21.72
2018-12-18T06:03:50.835Z,21.71
2018-12-18T06:04:22.440Z,21.71
2018-12-18T06:04:54.033Z,21.71
2018-12-18T06:05:25.625Z,21.72
2018-12-18T06:05:57.224Z,21.70
2018-12-18T06:06:28.861Z,21.69
2018-12-18T06:07:00.470Z,21.69
2018-12-18T06:07:32.087Z,21.68
2018-12-18T06:08:03.696Z,21.68
2018-12-18T06:08:35.289Z,21.66
2018-12-18T06:09:06.887Z,21.66
2018-12-18T06:09:38.501Z,21.64
2018-12-18T06:10:10.102Z,21.63
2018-12-18T06:10:41.697Z,21.63
2018-12-18T06:11:13.290Z,21.62
2018-12-18T06:11:44.924Z,21.60
2018-12-18T06:12:16.538Z,21.59
2018-12-18T06:12:48.139Z,21.56
2018-12-18T06:13:19.727Z,21.55
2018-12-18T06:13:51.323Z,21.55
2018-12-18T06:14:22.917Z,21.54
2018-12-18T06:14:54.519Z,21.53
2018-12-18T06:15:26.110Z,21.51
2018-12-18T06:15:57.721Z,21.50
2018-12-18T06:16:29.341Z,21.49
2018-12-18T06:17:00.936Z,21.45
2018-12-18T06:17:32.520Z,21.48
2018-12-18T06:18:04.120Z,21.46
2018-12-18T06:18:35.732Z,21.44
2018-12-18T06:19:07.395Z,21.42
2018-12-18T06:19:38.989Z,21.41
2018-12-18T06:20:10.581Z,21.40
2018-12-18T06:20:42.174Z,21.40
2018-12-18T06:21:13.774Z,21.38
2018-12-18T06:21:45.412Z,21.38
2018-12-18T06:22:17.015Z,21.37
2018-12-18T06:22:48.618Z,21.36
2018-12-18T06:23:20.219Z,21.35
2018-12-18T06:23:51.824Z,21.34
2018-12-18T06:24:23.422Z,21.33
2018-12-18T06:24:55.017Z,21.32
2018-12-18T06:25:26.613Z,21.30
2018-12-18T06:25:58.209Z,21.29
2018-12-18T06:26:29.834Z,21.28
2018-12-18T06:27:01.468Z,21.27
2018-12-18T06:27:33.064Z,21.26
2018-12-18T06:28:04.662Z,21.25
2018-12-18T06:28:36.276Z,21.25
2018-12-18T06:29:07.929Z,21.23
2018-12-18T06:29:39.525Z,21.22
2018-12-18T06:30:11.122Z,21.20
2018-12-18T06:30:42.728Z,21.19
2018-12-18T06:31:14.326Z,21.19
2018-12-18T06:31:45.946Z,21.18
2018-12-18T06:32:17.545Z,21.18
2018-12-18T06:32:49.138Z,21.17
2018-12-18T06:33:20.812Z,21.17
2018-12-18T06:33:52.409Z,21.15
2018-12-18T06:34:24.004Z,21.14
2018-12-18T06:34:55.597Z,21.12
2018-12-18T06:35:27.210Z,21.12
2018-12-18T06:35:58.820Z,21.09
2018-12-18T06:36:30.422Z,21.10
2018-12-18T06:37:02.045Z,21.08
2018-12-18T06:37:33.620Z,21.07
2018-12-18T06:38:05.210Z,21.06
2018-12-18T06:38:36.820Z,21.06
2018-12-18T06:39:08.433Z,21.06
2018-12-18T06:39:40.039Z,21.05
2018-12-18T06:40:11.648Z,21.05
2018-12-18T06:40:43.247Z,21.04
2018-12-18T06:41:14.847Z,21.04
2018-12-18T06:41:46.466Z,21.02
2018-12-18T06:42:18.060Z,21.02
2018-12-18T06:42:49.650Z,21.03
2018-12-18T06:43:21.261Z,20.74
2018-12-18T06:43:52.849Z,21.02
2018-12-18T06:44:24.444Z,21.00
2018-12-18T06:44:56.049Z,20.92
2018-12-18T06:45:27.648Z,20.99
2018-12-18T06:45:59.241Z,20.98
2018-12-18T06:46:30.849Z,20.98
2018-12-18T06:47:02.455Z,20.98